createdAt,value
2023-03-17T00:01:15.730Z,5.27
2023-03-17T00:03:49.487Z,5.27
2023-03-17T00:06:22.107Z,4.80
2023-03-17T00:08:56.077Z,6.33
2023-03-17T00:11:30.841Z,6.03
2023-03-17T00:14:01.815Z,3.67
2023-03-17T00:16:32.624Z,6.47
2023-03-17T00:19:02.730Z,6.57
2023-03-17T00:21:35.697Z,10.13
2023-03-17T00:24:05.713Z,8.87
2023-03-17T00:26:38.548Z,8.00
2023-03-17T00:29:17.428Z,4.87
2023-03-17T00:31:48.216Z,4.27
2023-03-17T00:34:21.450Z,7.97
2023-03-17T00:36:53.767Z,8.57
2023-03-17T00:39:28.329Z,6.27
2023-03-17T00:42:06.518Z,4.97
2023-03-17T00:44:39.638Z,11.07
2023-03-17T00:47:13.323Z,5.40
2023-03-17T00:49:45.842Z,7.07
2023-03-17T00:52:15.957Z,7.90
2023-03-17T00:54:46.015Z,6.30
2023-03-17T00:57:18.635Z,6.23
2023-03-17T00:59:48.595Z,5.00
2023-03-17T01:02:18.660Z,10.37
2023-03-17T01:04:59.583Z,6.30
2023-03-17T01:07:35.672Z,11.43
2023-03-17T01:10:16.016Z,6.27
2023-03-17T01:12:51.781Z,9.00
2023-03-17T01:15:26.204Z,6.37
2023-03-17T01:17:58.676Z,7.30
2023-03-17T01:20:33.217Z,6.63
2023-03-17T01:23:04.713Z,8.27
2023-03-17T01:25:35.868Z,7.53
2023-03-17T01:28:10.826Z,6.30
2023-03-17T01:30:43.847Z,6.93
2023-03-17T01:33:15.501Z,6.50
2023-03-17T01:35:48.534Z,6.73
2023-03-17T01:38:18.956Z,8.20
2023-03-17T01:40:51.167Z,7.40
2023-03-17T01:43:32.445Z,6.13
2023-03-17T01:46:25.536Z,8.47
2023-03-17T01:49:09.553Z,7.17
2023-03-17T01:51:46.628Z,7.93
2023-03-17T01:54:24.323Z,8.73
2023-03-17T01:56:57.481Z,9.87
2023-03-17T01:59:35.892Z,8.27
2023-03-17T02:02:11.480Z,9.67
2023-03-17T02:04:45.140Z,8.30
2023-03-17T02:07:16.830Z,8.83
2023-03-17T02:09:47.081Z,7.77
2023-03-17T02:12:17.535Z,9.87
2023-03-17T02:14:53.097Z,7.43
2023-03-17T02:17:23.975Z,11.47
2023-03-17T02:19:54.149Z,10.20
2023-03-17T02:22:28.740Z,12.97
2023-03-17T02:25:02.641Z,13.13
2023-03-17T02:27:37.518Z,6.67
2023-03-17T02:30:09.947Z,10.20
2023-03-17T02:32:41.009Z,9.47
2023-03-17T02:35:13.266Z,8.90
2023-03-17T02:37:48.270Z,11.23
2023-03-17T02:40:22.087Z,8.47
2023-03-17T02:42:52.414Z,9.53
2023-03-17T02:45:26.820Z,11.30
2023-03-17T02:47:58.695Z,8.00
2023-03-17T02:50:32.191Z,7.83
2023-03-17T02:53:07.672Z,8.23
2023-03-17T02:55:37.642Z,9.50
2023-03-17T02:58:07.630Z,7.77
2023-03-17T03:00:40.825Z,6.97
2023-03-17T03:03:10.795Z,8.80
2023-03-17T03:05:41.474Z,8.83
2023-03-17T03:08:19.817Z,14.13
2023-03-17T03:10:49.846Z,8.80
2023-03-17T03:13:19.791Z,8.10
2023-03-17T03:15:50.354Z,8.90
2023-03-17T03:18:20.336Z,10.20
2023-03-17T03:20:50.452Z,9.80
2023-03-17T03:23:23.302Z,9.17
2023-03-17T03:25:53.226Z,7.77
2023-03-17T03:28:23.192Z,7.67
2023-03-17T03:30:53.201Z,8.57
2023-03-17T03:33:23.260Z,7.87
2023-03-17T03:35:53.386Z,9.70
2023-03-17T03:38:26.191Z,7.00
2023-03-17T03:40:56.306Z,9.57
2023-03-17T03:43:26.343Z,12.47
2023-03-17T03:45:56.744Z,10.30
2023-03-17T03:48:26.722Z,7.67
2023-03-17T03:50:59.855Z,11.13
2023-03-17T03:53:33.167Z,8.80
2023-03-17T03:56:03.160Z,10.10
2023-03-17T03:58:33.125Z,9.30
2023-03-17T04:01:07.388Z,8.60
2023-03-17T04:03:37.288Z,11.97
2023-03-17T04:06:07.831Z,7.20
2023-03-17T04:08:40.352Z,8.67
2023-03-17T04:11:10.327Z,6.80
2023-03-17T04:13:40.619Z,11.17
2023-03-17T04:16:11.784Z,9.63
2023-03-17T04:18:41.803Z,8.30
2023-03-17T04:21:12.362Z,8.40
2023-03-17T04:23:44.868Z,7.47
2023-03-17T04:26:14.805Z,8.47
2023-03-17T04:28:44.731Z,7.40
2023-03-17T04:31:15.336Z,8.17
2023-03-17T04:33:45.373Z,10.43
2023-03-17T04:36:20.804Z,9.07
2023-03-17T04:38:53.489Z,7.83
2023-03-17T04:41:26.497Z,7.23
2023-03-17T04:43:56.522Z,7.13
2023-03-17T04:46:26.485Z,10.83
2023-03-17T04:48:56.686Z,13.37
2023-03-17T04:51:27.386Z,7.20
2023-03-17T04:54:00.697Z,10.07
2023-03-17T04:56:32.002Z,8.87
2023-03-17T04:59:02.325Z,8.80
2023-03-17T05:01:35.048Z,8.20
2023-03-17T05:04:05.320Z,11.17
2023-03-17T05:06:35.987Z,12.20
2023-03-17T05:09:08.694Z,7.20
2023-03-17T05:11:38.617Z,8.07
2023-03-17T05:14:08.557Z,9.53
2023-03-17T05:16:38.521Z,6.97
2023-03-17T05:19:08.533Z,7.73
2023-03-17T05:21:38.447Z,9.87
2023-03-17T05:24:11.771Z,7.03
2023-03-17T05:26:41.796Z,7.83
2023-03-17T05:29:11.774Z,6.27
2023-03-17T05:31:42.037Z,8.23
2023-03-17T05:34:11.965Z,8.03
2023-03-17T05:36:41.964Z,8.57
2023-03-17T05:39:14.774Z,9.10
2023-03-17T05:41:44.757Z,9.20
2023-03-17T05:44:14.685Z,8.40
2023-03-17T05:46:45.000Z,8.33
2023-03-17T05:49:15.575Z,8.17
2023-03-17T05:51:45.513Z,7.80
2023-03-17T05:54:20.941Z,7.77
2023-03-17T05:56:50.863Z,11.37
2023-03-17T05:59:23.352Z,7.87
2023-03-17T06:01:53.256Z,9.03
2023-03-17T06:04:23.147Z,7.80
2023-03-17T06:06:53.094Z,7.10
2023-03-17T06:09:25.652Z,7.17
2023-03-17T06:11:55.616Z,7.47
2023-03-17T06:14:27.129Z,8.50
2023-03-17T06:16:57.756Z,7.43
2023-03-17T06:19:27.765Z,6.97
2023-03-17T06:21:57.940Z,6.17
2023-03-17T06:24:30.430Z,6.10
2023-03-17T06:27:01.346Z,7.73
2023-03-17T06:29:31.845Z,5.43
2023-03-17T06:32:18.882Z,9.13
2023-03-17T06:34:50.312Z,6.27
2023-03-17T06:37:20.308Z,6.07
2023-03-17T06:39:52.950Z,12.10
2023-03-17T06:42:22.925Z,8.67
2023-03-17T06:44:53.127Z,6.67
2023-03-17T06:47:25.900Z,8.37
2023-03-17T06:49:56.464Z,7.83
2023-03-17T06:52:26.604Z,8.93
2023-03-17T06:54:59.218Z,8.73
2023-03-17T06:57:29.186Z,6.87
2023-03-17T06:59:59.152Z,10.93
2023-03-17T07:02:32.488Z,9.90
2023-03-17T07:05:03.853Z,7.17
2023-03-17T07:07:35.560Z,8.77
2023-03-17T07:10:10.403Z,7.50
2023-03-17T07:12:41.427Z,8.57
2023-03-17T07:15:12.503Z,9.13
2023-03-17T07:17:42.629Z,8.43
2023-03-17T07:20:14.505Z,7.77
2023-03-17T07:22:44.974Z,9.90
2023-03-17T07:25:17.608Z,9.67
2023-03-17T07:27:47.576Z,7.10
2023-03-17T07:30:19.362Z,7.63
2023-03-17T07:32:50.434Z,9.50
2023-03-17T07:35:20.755Z,8.93
2023-03-17T07:37:50.728Z,10.17
2023-03-17T07:40:24.173Z,7.57
2023-03-17T07:42:54.120Z,7.53
2023-03-17T07:45:24.240Z,7.70
2023-03-17T07:47:54.117Z,7.23
2023-03-17T07:50:24.135Z,6.27
2023-03-17T07:52:54.079Z,9.03
2023-03-17T07:55:26.981Z,6.27
2023-03-17T07:57:57.058Z,9.00
2023-03-17T08:00:29.240Z,8.40
2023-03-17T08:03:09.339Z,7.73
2023-03-17T08:05:41.140Z,7.30
2023-03-17T08:08:12.099Z,10.47
2023-03-17T08:10:45.013Z,6.20
2023-03-17T08:13:15.012Z,6.80
2023-03-17T08:15:45.371Z,6.37
2023-03-17T08:18:15.302Z,9.33
2023-03-17T08:20:45.207Z,4.37
2023-03-17T08:23:15.662Z,6.93
2023-03-17T08:25:48.872Z,8.27
2023-03-17T08:28:19.273Z,6.37
2023-03-17T08:30:50.584Z,6.10
2023-03-17T08:33:21.017Z,5.77
2023-03-17T08:35:51.713Z,6.73
2023-03-17T08:38:21.755Z,6.13
2023-03-17T08:40:54.464Z,4.73
2023-03-17T08:43:24.560Z,5.60
2023-03-17T08:45:54.700Z,5.20
2023-03-17T08:48:25.222Z,4.47
2023-03-17T08:50:55.215Z,4.67
2023-03-17T08:53:25.211Z,7.83
2023-03-17T08:55:59.119Z,4.83
2023-03-17T08:58:29.484Z,7.47
2023-03-17T09:01:01.690Z,6.43
2023-03-17T09:03:32.765Z,7.43
2023-03-17T09:06:05.939Z,5.90
2023-03-17T09:08:38.777Z,6.57
2023-03-17T09:11:11.758Z,7.47
2023-03-17T09:13:41.696Z,7.40
2023-03-17T09:16:11.688Z,4.70
2023-03-17T09:18:42.090Z,5.60
2023-03-17T09:21:14.064Z,8.43
2023-03-17T09:23:44.080Z,6.03
2023-03-17T09:26:16.643Z,13.23
2023-03-17T09:28:46.586Z,32.70
2023-03-17T09:31:16.902Z,10.73
2023-03-17T09:33:47.483Z,8.40
2023-03-17T09:36:17.986Z,5.77
2023-03-17T09:38:47.931Z,5.80
2023-03-17T09:41:51.002Z,5.60
2023-03-17T09:44:35.317Z,7.50
2023-03-17T09:47:15.578Z,6.33
2023-03-17T09:49:50.454Z,7.60
2023-03-17T09:52:25.920Z,5.63
2023-03-17T09:54:56.056Z,4.90
2023-03-17T09:57:32.928Z,4.47
2023-03-17T10:00:06.461Z,4.30
2023-03-17T10:02:40.314Z,5.20
2023-03-17T10:05:21.294Z,5.10
2023-03-17T10:07:59.624Z,6.27
2023-03-17T10:10:38.360Z,4.87
2023-03-17T10:13:22.166Z,4.93
2023-03-17T10:15:57.291Z,5.90
2023-03-17T10:18:32.940Z,4.50
2023-03-17T10:21:06.388Z,4.70
2023-03-17T10:23:38.929Z,5.10
2023-03-17T10:26:16.698Z,5.90
2023-03-17T10:28:52.404Z,5.20
2023-03-17T10:31:32.940Z,4.90
2023-03-17T10:34:16.648Z,5.40
2023-03-17T10:36:49.262Z,4.20
2023-03-17T10:39:21.914Z,5.37
2023-03-17T10:41:58.192Z,5.88
2023-03-17T10:44:44.989Z,6.95
2023-03-17T10:47:31.821Z,4.93
2023-03-17T10:50:06.416Z,4.82
2023-03-17T10:52:42.378Z,5.00
2023-03-17T10:55:17.403Z,3.65
2023-03-17T10:57:55.751Z,5.63
2023-03-17T11:00:35.317Z,6.43
2023-03-17T11:03:13.642Z,4.60
2023-03-17T11:05:44.294Z,4.68
2023-03-17T11:08:21.839Z,8.13
2023-03-17T11:10:57.531Z,6.63
2023-03-17T11:13:32.990Z,4.20
2023-03-17T11:16:12.986Z,5.27
2023-03-17T11:18:43.229Z,4.13
2023-03-17T11:21:14.355Z,4.97
2023-03-17T11:23:56.008Z,7.03
2023-03-17T11:26:41.513Z,4.43
2023-03-17T11:29:24.555Z,4.10
2023-03-17T11:32:03.249Z,4.37
2023-03-17T11:34:52.169Z,4.27
2023-03-17T11:37:42.475Z,4.88
2023-03-17T11:40:22.121Z,4.22
2023-03-17T11:43:16.371Z,4.68
2023-03-17T11:45:53.319Z,4.30
2023-03-17T11:48:39.483Z,5.65
2023-03-17T11:51:18.231Z,4.68
2023-03-17T11:53:58.571Z,4.07
2023-03-17T11:56:37.727Z,4.13
2023-03-17T11:59:15.671Z,4.45
2023-03-17T12:01:56.280Z,4.00
2023-03-17T12:04:34.499Z,4.43
2023-03-17T12:07:11.942Z,7.82
2023-03-17T12:10:02.616Z,5.05
2023-03-17T12:12:40.897Z,4.05
2023-03-17T12:15:32.179Z,3.92
2023-03-17T12:18:20.234Z,4.13
2023-03-17T12:20:58.616Z,4.90
2023-03-17T12:23:38.905Z,4.68
2023-03-17T12:26:14.603Z,3.97
2023-03-17T12:28:52.361Z,6.03
2023-03-17T12:31:28.996Z,4.22
2023-03-17T12:34:07.967Z,5.03
2023-03-17T12:36:42.740Z,3.75
2023-03-17T12:39:16.577Z,5.28
2023-03-17T12:42:08.921Z,5.07
2023-03-17T12:45:18.231Z,5.93
2023-03-17T12:48:08.187Z,4.17
2023-03-17T12:51:06.831Z,3.80
2023-03-17T12:53:41.245Z,3.70
2023-03-17T12:56:20.829Z,5.13
2023-03-17T12:58:53.391Z,3.60
2023-03-17T13:01:37.784Z,6.17
2023-03-17T13:04:17.943Z,4.80
2023-03-17T13:06:56.311Z,3.47
2023-03-17T13:09:39.559Z,5.10
2023-03-17T13:12:30.137Z,3.40
2023-03-17T13:15:01.692Z,4.13
2023-03-17T13:17:51.009Z,3.07
2023-03-17T13:20:23.197Z,3.70
2023-03-17T13:23:14.888Z,3.43
2023-03-17T13:25:55.284Z,3.83
2023-03-17T13:28:30.733Z,3.23
2023-03-17T13:31:13.526Z,3.50
2023-03-17T13:33:52.173Z,4.93
2023-03-17T13:36:42.780Z,3.77
2023-03-17T13:39:31.170Z,3.50
2023-03-17T13:42:20.762Z,4.30
2023-03-17T13:45:09.380Z,4.93
2023-03-17T13:47:55.751Z,3.33
2023-03-17T13:50:33.078Z,4.00
2023-03-17T13:53:07.657Z,4.43
2023-03-17T13:55:44.173Z,5.47
2023-03-17T13:58:36.277Z,3.97
2023-03-17T14:01:10.298Z,4.70
2023-03-17T14:03:47.553Z,7.13
2023-03-17T14:06:18.830Z,3.57
2023-03-17T14:08:53.812Z,3.57
2023-03-17T14:11:31.837Z,2.73
2023-03-17T14:14:32.052Z,5.40
2023-03-17T14:17:12.893Z,3.20
2023-03-17T14:19:43.480Z,3.57
2023-03-17T14:22:25.651Z,5.50
2023-03-17T14:24:56.569Z,2.97
2023-03-17T14:27:30.063Z,3.57
2023-03-17T14:30:08.966Z,6.97
2023-03-17T14:32:39.066Z,4.57
2023-03-17T14:35:16.537Z,3.90
2023-03-17T14:37:50.228Z,3.70
2023-03-17T14:40:25.239Z,4.27
2023-03-17T14:42:55.523Z,3.17
2023-03-17T14:45:44.614Z,3.67
2023-03-17T14:48:17.242Z,6.97
2023-03-17T14:50:56.271Z,4.07
2023-03-17T14:53:27.533Z,5.40
2023-03-17T14:56:12.829Z,4.47
2023-03-17T14:58:46.036Z,4.07
2023-03-17T15:01:39.791Z,4.93
2023-03-17T15:04:14.194Z,3.87
2023-03-17T15:06:53.895Z,6.03
2023-03-17T15:09:31.774Z,4.80
2023-03-17T15:12:18.988Z,4.77
2023-03-17T15:14:49.578Z,3.50
2023-03-17T15:17:25.279Z,3.57
2023-03-17T15:19:58.476Z,4.47
2023-03-17T15:22:32.457Z,5.80
2023-03-17T15:25:04.503Z,3.00
2023-03-17T15:27:34.686Z,5.67
2023-03-17T15:30:04.654Z,7.27
2023-03-17T15:32:37.436Z,4.90
2023-03-17T15:35:09.438Z,3.47
2023-03-17T15:37:39.408Z,4.40
2023-03-17T15:40:14.064Z,2.90
2023-03-17T15:42:45.474Z,6.53
2023-03-17T15:45:17.447Z,5.57
2023-03-17T15:47:50.248Z,3.63
2023-03-17T15:50:24.189Z,3.53
2023-03-17T15:52:59.222Z,4.80
2023-03-17T15:55:32.149Z,5.80
2023-03-17T15:58:02.787Z,3.40
2023-03-17T16:00:33.585Z,3.80
2023-03-17T16:03:15.193Z,5.60
2023-03-17T16:05:46.052Z,13.03
2023-03-17T16:08:17.963Z,4.47
2023-03-17T16:10:48.453Z,4.33
2023-03-17T16:13:18.345Z,4.00
2023-03-17T16:15:53.647Z,3.23
2023-03-17T16:18:36.562Z,4.33
2023-03-17T16:21:07.777Z,3.13
2023-03-17T16:23:39.313Z,3.60
2023-03-17T16:26:15.897Z,5.40
2023-03-17T16:28:50.640Z,3.10
2023-03-17T16:31:28.347Z,3.53
2023-03-17T16:34:01.011Z,5.73
2023-03-17T16:36:32.382Z,3.43
2023-03-17T16:39:02.420Z,4.47
2023-03-17T16:41:37.606Z,5.43
2023-03-17T16:44:09.557Z,4.93
2023-03-17T16:46:39.583Z,3.70
2023-03-17T16:49:13.249Z,5.17
2023-03-17T16:51:43.283Z,5.73
2023-03-17T16:54:13.987Z,8.30
2023-03-17T16:56:45.041Z,6.70
2023-03-17T16:59:22.317Z,4.50
2023-03-17T17:01:54.941Z,5.73
2023-03-17T17:04:27.604Z,4.30
2023-03-17T17:06:57.918Z,5.80
2023-03-17T17:09:27.943Z,5.13
2023-03-17T17:11:58.576Z,11.60
2023-03-17T17:14:28.624Z,8.37
2023-03-17T17:16:58.740Z,5.97
2023-03-17T17:19:31.395Z,10.27
2023-03-17T17:22:01.448Z,4.60
2023-03-17T17:24:31.656Z,6.37
2023-03-17T17:27:01.842Z,6.17
2023-03-17T17:29:32.459Z,5.03
2023-03-17T17:32:02.748Z,4.70
2023-03-17T17:34:35.630Z,5.10
2023-03-17T17:37:05.837Z,4.40
2023-03-17T17:39:36.031Z,4.10
2023-03-17T17:42:06.373Z,5.33
2023-03-17T17:44:37.169Z,5.63
2023-03-17T17:47:08.057Z,5.53
2023-03-17T17:49:41.495Z,4.30
2023-03-17T17:52:14.640Z,5.67
2023-03-17T17:54:44.760Z,4.80
2023-03-17T17:57:14.884Z,9.47
2023-03-17T17:59:44.978Z,62.30
2023-03-17T18:02:15.743Z,46.67
2023-03-17T18:04:51.593Z,47.47
2023-03-17T18:07:21.681Z,95.80
2023-03-17T18:09:57.693Z,11.43
2023-03-17T18:12:27.892Z,56.90
2023-03-17T18:14:58.799Z,57.60
2023-03-17T18:17:31.254Z,29.73
2023-03-17T18:20:05.538Z,17.43
2023-03-17T18:22:35.535Z,29.13
2023-03-17T18:25:05.959Z,105.77
2023-03-17T18:27:39.569Z,48.73
2023-03-17T18:30:13.427Z,28.43
2023-03-17T18:32:45.642Z,43.40
2023-03-17T18:35:23.862Z,52.50
2023-03-17T18:37:56.543Z,88.00
2023-03-17T18:40:26.733Z,95.20
2023-03-17T18:42:57.264Z,42.20
2023-03-17T18:45:27.377Z,145.23
2023-03-17T18:47:57.711Z,51.77
2023-03-17T18:50:30.736Z,33.83
2023-03-17T18:53:01.111Z,100.10
2023-03-17T18:55:31.238Z,21.53
2023-03-17T18:58:01.555Z,48.03
2023-03-17T19:00:31.728Z,51.70
2023-03-17T19:03:01.939Z,28.93
2023-03-17T19:05:40.720Z,29.90
2023-03-17T19:08:11.650Z,66.90
2023-03-17T19:10:44.982Z,156.53
2023-03-17T19:13:15.299Z,70.00
2023-03-17T19:15:45.374Z,91.53
2023-03-17T19:18:16.285Z,55.00
2023-03-17T19:20:48.859Z,34.33
2023-03-17T19:23:20.219Z,30.47
2023-03-17T19:25:50.338Z,7.33
2023-03-17T19:28:20.768Z,6.93
2023-03-17T19:30:52.737Z,6.90
2023-03-17T19:33:22.700Z,8.77
2023-03-17T19:35:58.751Z,6.47
2023-03-17T19:38:29.876Z,6.80
2023-03-17T19:40:59.877Z,8.70
2023-03-17T19:43:40.373Z,5.50
2023-03-17T19:46:14.529Z,8.07
2023-03-17T19:48:44.776Z,6.90
2023-03-17T19:51:19.144Z,11.37
2023-03-17T19:53:49.278Z,7.33
2023-03-17T19:56:21.392Z,7.63
2023-03-17T19:58:51.688Z,6.90
2023-03-17T20:01:26.376Z,7.90
2023-03-17T20:03:57.811Z,6.40
2023-03-17T20:06:32.013Z,11.87
2023-03-17T20:09:04.108Z,7.50
2023-03-17T20:11:38.812Z,8.57
2023-03-17T20:14:08.982Z,7.17
2023-03-17T20:16:45.312Z,9.53
2023-03-17T20:19:18.371Z,7.00
2023-03-17T20:21:51.515Z,10.60
2023-03-17T20:24:22.566Z,7.00
2023-03-17T20:26:54.727Z,8.40
2023-03-17T20:29:24.725Z,9.17
2023-03-17T20:31:54.806Z,7.60
2023-03-17T20:34:26.038Z,7.80
2023-03-17T20:37:02.916Z,7.47
2023-03-17T20:39:35.072Z,10.27
2023-03-17T20:42:10.107Z,8.67
2023-03-17T20:44:44.695Z,7.93
2023-03-17T20:47:14.951Z,8.03
2023-03-17T20:49:47.801Z,7.40
2023-03-17T20:52:23.152Z,8.57
2023-03-17T20:54:53.881Z,7.60
2023-03-17T20:57:23.992Z,8.70
2023-03-17T20:59:54.152Z,7.63
2023-03-17T21:02:24.462Z,10.13
2023-03-17T21:04:54.497Z,10.30
2023-03-17T21:07:27.152Z,6.63
2023-03-17T21:09:57.576Z,7.57
2023-03-17T21:12:27.696Z,7.37
2023-03-17T21:14:59.356Z,9.00
2023-03-17T21:17:29.569Z,8.33
2023-03-17T21:19:59.578Z,7.60
2023-03-17T21:22:34.131Z,11.47
2023-03-17T21:25:04.067Z,8.63
2023-03-17T21:27:34.262Z,7.10
2023-03-17T21:30:04.488Z,7.30
2023-03-17T21:32:36.691Z,9.03
2023-03-17T21:35:09.408Z,9.53
2023-03-17T21:37:42.213Z,10.43
2023-03-17T21:40:15.786Z,9.43
2023-03-17T21:42:45.908Z,8.00
2023-03-17T21:45:16.094Z,8.70
2023-03-17T21:47:46.012Z,9.57
2023-03-17T21:50:17.765Z,7.23
2023-03-17T21:52:51.098Z,10.07
2023-03-17T21:55:21.275Z,8.60
2023-03-17T21:57:51.272Z,9.93
2023-03-17T22:00:23.582Z,7.53
2023-03-17T22:02:55.052Z,11.13
2023-03-17T22:05:25.203Z,10.37
2023-03-17T22:07:58.446Z,9.67
2023-03-17T22:10:28.436Z,9.40
2023-03-17T22:12:58.441Z,9.27
2023-03-17T22:15:29.219Z,9.03
2023-03-17T22:18:02.165Z,7.30
2023-03-17T22:20:33.279Z,7.97
2023-03-17T22:23:06.205Z,9.70
2023-03-17T22:25:36.146Z,9.73
2023-03-17T22:28:09.434Z,8.67
2023-03-17T22:30:41.333Z,8.80
2023-03-17T22:33:12.440Z,9.27
2023-03-17T22:35:43.863Z,12.00
2023-03-17T22:38:16.598Z,9.40
2023-03-17T22:40:46.693Z,10.17
2023-03-17T22:43:16.612Z,11.17
2023-03-17T22:45:46.622Z,10.97
2023-03-17T22:48:16.606Z,8.87
2023-03-17T22:50:46.811Z,9.70
2023-03-17T22:53:19.374Z,10.87
2023-03-17T22:55:49.392Z,10.93
2023-03-17T22:58:19.307Z,12.67
2023-03-17T23:00:50.369Z,9.43
2023-03-17T23:03:20.426Z,8.97
2023-03-17T23:05:52.176Z,9.43
2023-03-17T23:08:24.701Z,8.73
2023-03-17T23:10:54.921Z,9.17
2023-03-17T23:13:25.987Z,8.40
2023-03-17T23:15:56.583Z,9.77
2023-03-17T23:18:30.006Z,9.10
2023-03-17T23:21:00.186Z,9.33
2023-03-17T23:23:35.680Z,11.13
2023-03-17T23:26:06.236Z,11.23
2023-03-17T23:28:36.911Z,9.20
2023-03-17T23:31:08.318Z,8.20
2023-03-17T23:33:38.754Z,8.83
2023-03-17T23:36:16.818Z,13.27
2023-03-17T23:38:52.457Z,12.90
2023-03-17T23:41:25.188Z,8.40
2023-03-17T23:43:57.892Z,11.40
2023-03-17T23:46:29.017Z,7.03
2023-03-17T23:49:07.286Z,7.73
2023-03-17T23:51:44.047Z,9.63
2023-03-17T23:54:16.817Z,9.03
2023-03-17T23:56:47.969Z,8.07
2023-03-17T23:59:26.050Z,8.50
